Taiobeiras, Brazil
Current Conditions -  °F | °C
As of 4:00 PM on Wednesday 26 Nov 2014 (Local Time) from SBQV Reporting Station
Scattered Clouds Scattered Clouds  
Wind Chill: 84°   Ceiling: Unl
Heat Index: 84°   Visibility: 6mi
Dew Point: 59°   Wind: 8mph
Humidity: 42%   Direction: 50°NE
Pressure: 30"   Gusts: NA
Location:  15.81°S, 42.23°W
Report Text: SBQV 261800Z 05007KT 9999 SCT020 29/15 Q1016
Loading
Personal Weather Stations






























Interactive Weather Map New forecast layout! Learn more

10-Day Weather Forecast

Advertisements
Track Severe Weather on mobile